Weather at Farm Aero Airport [CLOSED]

Public forecast

Using degrees Fahrenheit for public forecast. Weather courtesy of forecast.io.

Closest aviation weather report (METAR) to Farm Aero Airport

Closest report is Phoenix Sky Harbor International Airport, 8.1 nm (14.9 km) E. Retrieved 2021/06/20 03:51 UTC (18 minutes ago):

KPHX 200351Z 26010KT 10SM FEW120 FEW200 FEW250 42/08 A2955 RMK AO2 SLP981 T04170083

Closest aviation forecast (TAF) to Farm Aero Airport

Closest forecast is Phoenix Sky Harbor International Airport, 8.1 nm (14.9 km) E. Retrieved 2021-06-20 00:39 UTC (3 hours ago):

TAF KPHX 192336Z 2000/2106 27015G22KT P6SM SKC FM200300 25010KT P6SM SKC FM201000 11005KT P6SM FEW150 FEW250 FM201700 26010KT P6SM SKC FM201900 27017G24KT P6SM SKC